createdAt,value
2022-08-04T00:00:12.656Z,79.94
2022-08-04T00:04:28.174Z,86.87
2022-08-04T00:08:39.440Z,86.53
2022-08-04T00:12:47.228Z,83.50
2022-08-04T00:16:52.475Z,84.50
2022-08-04T00:21:03.437Z,85.69
2022-08-04T00:25:06.968Z,85.09
2022-08-04T00:29:09.998Z,85.84
2022-08-04T00:33:48.839Z,85.91
2022-08-04T00:37:45.109Z,85.79
2022-08-04T00:42:30.247Z,93.13
2022-08-04T00:46:35.507Z,100.00
2022-08-04T00:50:56.214Z,89.76
2022-08-04T00:55:22.923Z,97.02
2022-08-04T00:59:55.255Z,97.66
2022-08-04T01:04:19.746Z,98.79
2022-08-04T01:08:40.877Z,98.16
2022-08-04T01:12:50.733Z,97.65
2022-08-04T01:17:03.559Z,98.39
2022-08-04T01:21:28.059Z,99.94
2022-08-04T01:25:42.162Z,100.00
2022-08-04T01:29:50.735Z,100.00
2022-08-04T01:34:04.541Z,100.00
2022-08-04T01:38:21.035Z,100.00
2022-08-04T01:42:32.086Z,100.00
2022-08-04T01:46:35.883Z,100.00
2022-08-04T01:50:40.016Z,100.00
2022-08-04T01:54:43.015Z,100.00
2022-08-04T01:58:45.585Z,100.00
2022-08-04T02:02:51.325Z,100.00
2022-08-04T02:07:13.822Z,100.00
2022-08-04T02:11:26.543Z,100.00
2022-08-04T02:15:48.186Z,100.00
2022-08-04T02:20:21.464Z,100.00
2022-08-04T02:24:28.008Z,100.00
2022-08-04T02:29:11.101Z,100.00
2022-08-04T02:33:19.567Z,100.00
2022-08-04T02:37:24.329Z,100.00
2022-08-04T02:41:27.257Z,100.00
2022-08-04T02:45:32.317Z,100.00
2022-08-04T02:49:38.546Z,100.00
2022-08-04T02:53:45.345Z,100.00
2022-08-04T02:57:51.344Z,100.00
2022-08-04T03:02:00.659Z,100.00
2022-08-04T03:06:12.289Z,100.00
2022-08-04T03:10:34.701Z,100.00
2022-08-04T03:14:40.080Z,100.00
2022-08-04T03:19:00.998Z,100.00
2022-08-04T03:23:13.859Z,100.00
2022-08-04T03:27:22.617Z,100.00
2022-08-04T03:31:47.540Z,100.00
2022-08-04T03:36:04.930Z,100.00
2022-08-04T03:40:28.602Z,100.00
2022-08-04T03:44:54.791Z,100.00
2022-08-04T03:49:05.693Z,100.00
2022-08-04T03:53:23.297Z,100.00
2022-08-04T03:57:56.759Z,100.00
2022-08-04T04:02:06.753Z,100.00
2022-08-04T04:06:39.742Z,100.00
2022-08-04T04:10:52.869Z,100.00
2022-08-04T04:15:32.753Z,100.00
2022-08-04T04:19:59.616Z,100.00
2022-08-04T04:24:20.674Z,100.00
2022-08-04T04:28:46.489Z,100.00
2022-08-04T04:32:52.152Z,100.00
2022-08-04T04:37:34.582Z,100.00
2022-08-04T04:42:23.408Z,100.00
2022-08-04T04:46:43.395Z,100.00
2022-08-04T04:51:15.332Z,100.00
2022-08-04T04:55:26.902Z,100.00
2022-08-04T04:59:36.043Z,100.00
2022-08-04T05:03:53.990Z,100.00
2022-08-04T05:08:45.247Z,100.00
2022-08-04T05:14:38.679Z,100.00
2022-08-04T05:18:00.710Z,100.00
2022-08-04T05:22:10.099Z,100.00
2022-08-04T05:26:19.008Z,100.00
2022-08-04T05:30:25.326Z,100.00
2022-08-04T05:34:31.184Z,100.00
2022-08-04T05:38:41.006Z,100.00
2022-08-04T05:42:43.649Z,100.00
2022-08-04T05:46:54.078Z,100.00
2022-08-04T05:51:01.010Z,99.55
2022-08-04T05:55:06.004Z,97.42
2022-08-04T05:59:11.651Z,96.02
2022-08-04T06:03:19.299Z,93.62
2022-08-04T06:07:22.141Z,90.51
2022-08-04T06:11:30.239Z,87.06
2022-08-04T06:15:40.222Z,85.49
2022-08-04T06:20:01.261Z,84.00
2022-08-04T06:24:21.921Z,84.20
2022-08-04T06:28:26.117Z,84.32
2022-08-04T06:32:48.577Z,83.31
2022-08-04T06:36:52.063Z,82.35
2022-08-04T06:40:58.077Z,76.50
2022-08-04T06:45:03.309Z,76.57
2022-08-04T06:49:06.803Z,72.88
2022-08-04T06:53:09.729Z,70.69
2022-08-04T06:57:16.987Z,71.80
2022-08-04T07:01:59.426Z,64.82
2022-08-04T07:06:25.465Z,66.00
2022-08-04T07:10:31.687Z,62.07
2022-08-04T07:14:36.526Z,60.95
2022-08-04T07:18:38.896Z,60.79
2022-08-04T07:22:43.378Z,59.60
2022-08-04T07:26:50.778Z,57.14
2022-08-04T07:31:39.182Z,56.80
2022-08-04T07:36:04.518Z,55.42
2022-08-04T07:40:06.650Z,55.47
2022-08-04T07:44:10.224Z,54.40
2022-08-04T07:48:12.675Z,48.82
2022-08-04T07:52:17.042Z,53.51
2022-08-04T07:56:19.567Z,52.06
2022-08-04T08:00:21.786Z,50.29
2022-08-04T08:04:28.958Z,50.23
2022-08-04T08:08:48.581Z,48.87
2022-08-04T08:12:52.788Z,48.74
2022-08-04T08:17:02.680Z,48.56
2022-08-04T08:21:05.856Z,47.55
2022-08-04T08:25:08.985Z,47.25
2022-08-04T08:29:13.267Z,46.15
2022-08-04T08:33:21.587Z,44.63
2022-08-04T08:37:42.236Z,43.98
2022-08-04T08:42:24.318Z,42.31
2022-08-04T08:47:04.482Z,39.77
2022-08-04T08:51:25.166Z,40.92
2022-08-04T08:55:46.383Z,42.15
2022-08-04T09:00:17.721Z,41.41
2022-08-04T09:04:36.309Z,38.23
2022-08-04T09:08:58.107Z,40.68
2022-08-04T09:13:10.602Z,40.66
2022-08-04T09:17:29.564Z,38.15
2022-08-04T09:22:01.271Z,38.46
2022-08-04T09:26:32.295Z,37.07
2022-08-04T09:31:00.791Z,36.16
2022-08-04T09:35:38.713Z,36.66
2022-08-04T09:39:53.319Z,36.85
2022-08-04T09:44:51.120Z,36.03
2022-08-04T09:49:14.943Z,36.59
2022-08-04T09:53:44.750Z,33.99
2022-08-04T09:58:02.465Z,33.34
2022-08-04T10:02:10.460Z,34.83
2022-08-04T10:06:28.400Z,33.14
2022-08-04T10:10:35.590Z,35.03
2022-08-04T10:14:52.200Z,32.52
2022-08-04T10:19:09.225Z,34.79
2022-08-04T10:23:12.532Z,33.82
2022-08-04T10:27:28.266Z,30.69
2022-08-04T10:31:36.612Z,31.31
2022-08-04T10:35:47.200Z,31.08
2022-08-04T10:40:25.794Z,29.68
2022-08-04T10:44:44.909Z,29.08
2022-08-04T10:49:26.129Z,29.93
2022-08-04T10:53:31.412Z,31.46
2022-08-04T10:58:02.605Z,31.22
2022-08-04T11:02:21.382Z,28.49
2022-08-04T11:06:24.827Z,31.21
2022-08-04T11:10:31.434Z,29.79
2022-08-04T11:14:45.349Z,28.56
2022-08-04T11:19:18.827Z,25.83
2022-08-04T11:23:29.031Z,27.67
2022-08-04T11:27:37.805Z,28.96
2022-08-04T11:31:46.228Z,28.29
2022-08-04T11:36:24.799Z,25.11
2022-08-04T11:40:36.420Z,27.62
2022-08-04T11:44:47.085Z,26.93
2022-08-04T11:49:02.053Z,25.63
2022-08-04T11:53:06.040Z,27.18
2022-08-04T11:57:11.721Z,27.42
2022-08-04T12:01:35.978Z,24.04
2022-08-04T12:05:58.841Z,25.31
2022-08-04T12:10:40.944Z,25.77
2022-08-04T12:15:20.513Z,23.98
2022-08-04T12:20:05.083Z,24.76
2022-08-04T12:24:23.834Z,24.67
2022-08-04T12:29:08.577Z,24.63
2022-08-04T12:33:18.111Z,25.91
2022-08-04T12:37:27.083Z,25.38
2022-08-04T12:41:40.703Z,24.45
2022-08-04T12:52:06.866Z,24.21
2022-08-04T12:55:37.284Z,24.27
2022-08-04T12:59:56.969Z,24.09
2022-08-04T13:04:03.128Z,22.45
2022-08-04T13:08:20.053Z,24.55
2022-08-04T13:13:28.632Z,23.88
2022-08-04T13:18:33.499Z,22.93
2022-08-04T13:22:37.865Z,24.13
2022-08-04T13:27:08.885Z,22.96
2022-08-04T13:31:13.361Z,22.76
2022-08-04T13:35:31.056Z,24.65
2022-08-04T13:39:55.714Z,23.78
2022-08-04T13:44:17.868Z,22.32
2022-08-04T13:49:03.394Z,23.64
2022-08-04T13:53:22.096Z,23.46
2022-08-04T13:57:30.833Z,22.51
2022-08-04T14:02:07.411Z,22.16
2022-08-04T14:06:18.927Z,22.13
2022-08-04T14:10:25.439Z,22.65
2022-08-04T14:14:33.165Z,23.04
2022-08-04T14:18:36.012Z,23.20
2022-08-04T14:22:41.370Z,23.02
2022-08-04T14:27:09.809Z,21.77
2022-08-04T14:32:30.865Z,22.73
2022-08-04T14:37:16.618Z,22.62
2022-08-04T14:41:24.395Z,20.75
2022-08-04T14:45:55.053Z,22.52
2022-08-04T14:50:00.706Z,22.47
2022-08-04T14:54:08.259Z,22.58
2022-08-04T14:58:35.424Z,21.68
2022-08-04T15:02:43.194Z,22.49
2022-08-04T15:06:49.247Z,22.79
2022-08-04T15:10:53.017Z,22.82
2022-08-04T15:15:20.155Z,21.45
2022-08-04T15:19:55.693Z,20.50
2022-08-04T15:24:02.077Z,21.10
2022-08-04T15:28:08.104Z,21.84
2022-08-04T15:37:33.196Z,21.00
2022-08-04T15:42:14.988Z,21.15
2022-08-04T15:47:18.519Z,16.91
2022-08-04T15:51:31.889Z,17.42
2022-08-04T15:57:11.090Z,15.46
2022-08-04T16:01:17.181Z,15.97
2022-08-04T16:05:25.263Z,15.49
2022-08-04T16:09:45.445Z,14.64
2022-08-04T16:14:35.940Z,15.13
2022-08-04T16:18:40.993Z,14.86
2022-08-04T16:22:51.543Z,12.87
2022-08-04T16:27:13.852Z,13.24
2022-08-04T16:37:07.763Z,14.77
2022-08-04T16:42:05.257Z,14.83
2022-08-04T16:52:44.409Z,14.32
2022-08-04T16:57:25.172Z,16.53
2022-08-04T17:01:33.003Z,17.08
2022-08-04T17:05:39.275Z,18.29
2022-08-04T17:09:50.870Z,18.88
2022-08-04T17:14:05.808Z,20.29
2022-08-04T17:18:23.185Z,20.12
2022-08-04T17:22:25.741Z,19.83
2022-08-04T17:26:55.072Z,19.28
2022-08-04T17:31:27.153Z,19.26
2022-08-04T17:35:38.707Z,20.62
2022-08-04T17:39:41.692Z,20.88
2022-08-04T17:44:02.948Z,21.15
2022-08-04T17:48:11.576Z,22.57
2022-08-04T17:52:41.330Z,24.04
2022-08-04T17:56:52.377Z,24.77
2022-08-04T18:01:24.955Z,25.36
2022-08-04T18:05:54.020Z,26.06
2022-08-04T18:10:30.733Z,28.06
2022-08-04T18:15:07.097Z,29.23
2022-08-04T18:19:11.831Z,28.12
2022-08-04T18:23:16.740Z,29.49
2022-08-04T18:27:24.452Z,29.96
2022-08-04T18:31:29.843Z,30.83
2022-08-04T18:36:32.925Z,31.08
2022-08-04T18:40:24.946Z,31.77
2022-08-04T18:44:28.146Z,32.17
2022-08-04T18:48:35.928Z,33.10
2022-08-04T18:52:45.292Z,33.35
2022-08-04T18:57:05.194Z,33.92
2022-08-04T19:01:15.756Z,34.30
2022-08-04T19:05:24.418Z,34.58
2022-08-04T19:09:51.110Z,35.05
2022-08-04T19:13:58.621Z,35.27
2022-08-04T19:18:07.102Z,35.52
2022-08-04T19:22:13.181Z,36.01
2022-08-04T19:26:36.769Z,36.28
2022-08-04T19:30:39.824Z,37.17
2022-08-04T19:34:47.321Z,37.22
2022-08-04T19:38:52.833Z,37.45
2022-08-04T19:43:02.687Z,37.57
2022-08-04T19:48:12.186Z,38.40
2022-08-04T19:51:38.933Z,38.21
2022-08-04T19:55:50.076Z,38.62
2022-08-04T19:59:54.976Z,38.85
2022-08-04T20:04:09.266Z,38.61
2022-08-04T20:08:13.363Z,39.64
2022-08-04T20:12:18.996Z,40.54
2022-08-04T20:16:29.526Z,40.74
2022-08-04T20:20:32.925Z,40.74
2022-08-04T20:29:00.169Z,42.04
2022-08-04T20:33:04.344Z,42.64
2022-08-04T20:37:10.396Z,42.87
2022-08-04T20:41:13.605Z,44.67
2022-08-04T20:45:18.107Z,44.74
2022-08-04T20:49:35.423Z,45.18
2022-08-04T20:53:53.046Z,45.03
2022-08-04T20:58:02.597Z,45.16
2022-08-04T21:02:16.353Z,45.80
2022-08-04T21:06:19.404Z,46.04
2022-08-04T21:10:32.937Z,47.28
2022-08-04T21:14:36.155Z,47.52
2022-08-04T21:18:41.094Z,56.96
2022-08-04T21:22:45.643Z,56.04
2022-08-04T21:26:56.410Z,56.86
2022-08-04T21:31:02.507Z,56.68
2022-08-04T21:35:18.717Z,56.87
2022-08-04T21:39:23.284Z,58.19
2022-08-04T21:43:42.670Z,58.21
2022-08-04T21:47:55.927Z,57.40
2022-08-04T21:52:01.529Z,57.40
2022-08-04T21:56:09.665Z,58.70
2022-08-04T22:00:19.515Z,59.74
2022-08-04T22:04:22.342Z,59.30
2022-08-04T22:18:01.315Z,61.66
2022-08-04T22:22:07.618Z,62.28
2022-08-04T22:26:20.035Z,66.22
2022-08-04T22:30:36.538Z,67.30
2022-08-04T22:34:45.616Z,69.18
2022-08-04T22:39:04.276Z,68.81
2022-08-04T22:43:31.298Z,71.84
2022-08-04T22:47:30.957Z,71.79
2022-08-04T22:51:35.293Z,73.60
2022-08-04T22:56:07.382Z,76.13
2022-08-04T23:00:07.819Z,77.96
2022-08-04T23:04:43.112Z,80.69
2022-08-04T23:08:54.806Z,81.21
2022-08-04T23:13:04.271Z,81.95
2022-08-04T23:17:06.494Z,81.12
2022-08-04T23:21:11.543Z,79.15
2022-08-04T23:25:15.874Z,79.07
2022-08-04T23:29:19.169Z,79.28
2022-08-04T23:33:21.942Z,79.97
2022-08-04T23:37:25.615Z,80.88
2022-08-04T23:41:54.642Z,81.97
2022-08-04T23:46:06.987Z,82.51
2022-08-04T23:50:10.493Z,82.76
2022-08-04T23:54:12.665Z,83.79
2022-08-04T23:58:20.875Z,84.22
